createdAt,value
2023-03-04T00:00:08.897Z,-0.10
2023-03-04T00:03:17.050Z,-0.10
2023-03-04T00:05:59.401Z,-0.10
2023-03-04T00:08:42.129Z,-0.20
2023-03-04T00:11:24.967Z,-0.10
2023-03-04T00:14:07.645Z,-0.10
2023-03-04T00:16:49.950Z,-0.20
2023-03-04T00:19:32.540Z,-0.10
2023-03-04T00:22:14.816Z,-0.10
2023-03-04T00:24:57.285Z,-0.10
2023-03-04T00:27:39.497Z,-0.10
2023-03-04T00:30:22.098Z,-0.10
2023-03-04T00:33:04.442Z,-0.10
2023-03-04T00:35:46.936Z,-0.10
2023-03-04T00:38:29.379Z,-0.10
2023-03-04T00:41:11.863Z,-0.20
2023-03-04T00:43:56.629Z,-0.10
2023-03-04T00:46:39.174Z,-0.10
2023-03-04T00:49:21.964Z,-0.10
2023-03-04T00:52:04.896Z,-0.10
2023-03-04T00:54:47.071Z,-0.10
2023-03-04T00:57:29.517Z,-0.10
2023-03-04T01:00:12.658Z,-0.10
2023-03-04T01:02:55.162Z,-0.10
2023-03-04T01:05:37.400Z,-0.10
2023-03-04T01:08:20.021Z,0.00
2023-03-04T01:11:02.208Z,0.00
2023-03-04T01:13:44.733Z,0.00
2023-03-04T01:16:27.047Z,0.00
2023-03-04T01:19:10.317Z,0.00
2023-03-04T01:21:52.678Z,0.00
2023-03-04T01:24:35.236Z,0.00
2023-03-04T01:27:17.537Z,0.10
2023-03-04T01:29:59.977Z,0.10
2023-03-04T01:32:42.216Z,0.10
2023-03-04T01:35:25.187Z,0.20
2023-03-04T01:38:07.511Z,0.20
2023-03-04T01:40:50.381Z,0.20
2023-03-04T01:43:32.833Z,0.20
2023-03-04T01:46:15.522Z,0.30
2023-03-04T01:48:58.008Z,0.30
2023-03-04T01:51:43.195Z,0.40
2023-03-04T01:54:25.502Z,0.40
2023-03-04T01:57:20.067Z,0.40
2023-03-04T02:00:35.213Z,0.40
2023-03-04T02:03:21.975Z,0.50
2023-03-04T02:06:04.525Z,0.50
2023-03-04T02:08:47.009Z,0.50
2023-03-04T02:11:29.523Z,0.50
2023-03-04T02:14:13.342Z,0.60
2023-03-04T02:16:55.770Z,0.60
2023-03-04T02:20:12.872Z,0.60
2023-03-04T02:23:01.846Z,0.60
2023-03-04T02:26:10.829Z,0.70
2023-03-04T02:28:54.645Z,0.70
2023-03-04T02:31:46.082Z,0.70
2023-03-04T02:34:32.962Z,0.70
2023-03-04T02:37:16.972Z,0.80
2023-03-04T02:40:00.002Z,0.70
2023-03-04T02:42:44.963Z,0.80
2023-03-04T02:45:35.999Z,0.80
2023-03-04T02:48:22.370Z,0.80
2023-03-04T02:51:04.823Z,0.80
2023-03-04T02:53:48.509Z,0.80
2023-03-04T02:56:31.058Z,0.80
2023-03-04T02:59:13.605Z,0.80
2023-03-04T03:01:56.315Z,0.80
2023-03-04T03:04:40.783Z,0.80
2023-03-04T03:07:26.491Z,0.80
2023-03-04T03:10:10.551Z,0.80
2023-03-04T03:12:53.112Z,0.80
2023-03-04T03:15:35.690Z,0.80
2023-03-04T03:18:18.082Z,0.80
2023-03-04T03:21:00.508Z,0.80
2023-03-04T03:23:43.971Z,0.80
2023-03-04T03:26:26.490Z,0.80
2023-03-04T03:29:08.748Z,0.80
2023-03-04T03:31:51.450Z,0.80
2023-03-04T03:34:35.962Z,0.80
2023-03-04T03:37:18.818Z,0.80
2023-03-04T03:40:01.145Z,0.80
2023-03-04T03:42:43.608Z,0.80
2023-03-04T03:45:25.998Z,0.80
2023-03-04T03:48:08.687Z,0.80
2023-03-04T03:50:50.902Z,0.80
2023-03-04T03:53:33.353Z,0.80
2023-03-04T03:56:15.667Z,0.80
2023-03-04T03:58:58.261Z,0.80
2023-03-04T04:01:40.581Z,0.80
2023-03-04T04:04:23.151Z,0.80
2023-03-04T04:07:05.360Z,0.80
2023-03-04T04:09:48.201Z,0.80
2023-03-04T04:12:30.505Z,0.80
2023-03-04T04:15:13.137Z,0.80
2023-03-04T04:17:55.341Z,0.80
2023-03-04T04:20:37.770Z,0.80
2023-03-04T04:23:20.021Z,0.80
2023-03-04T04:26:02.488Z,0.80
2023-03-04T04:28:44.609Z,0.80
2023-03-04T04:31:27.029Z,0.80
2023-03-04T04:34:09.391Z,0.80
2023-03-04T04:36:52.503Z,0.80
2023-03-04T04:39:34.671Z,0.80
2023-03-04T04:42:17.442Z,0.90
2023-03-04T04:44:59.617Z,0.90
2023-03-04T04:47:42.076Z,0.80
2023-03-04T04:50:25.233Z,0.90
2023-03-04T04:53:07.675Z,0.90
2023-03-04T04:55:49.912Z,0.90
2023-03-04T04:58:32.268Z,0.90
2023-03-04T05:01:15.972Z,0.80
2023-03-04T05:03:58.793Z,0.80
2023-03-04T05:06:41.333Z,0.80
2023-03-04T05:09:23.826Z,0.80
2023-03-04T05:12:06.152Z,0.90
2023-03-04T05:14:48.549Z,0.90
2023-03-04T05:17:30.798Z,0.80
2023-03-04T05:20:13.616Z,0.80
2023-03-04T05:22:56.185Z,0.80
2023-03-04T05:25:38.631Z,0.90
2023-03-04T05:28:20.967Z,0.90
2023-03-04T05:31:03.848Z,0.90
2023-03-04T05:33:46.185Z,0.90
2023-03-04T05:36:28.648Z,0.90
2023-03-04T05:39:11.289Z,0.90
2023-03-04T05:41:53.769Z,1.00
2023-03-04T05:44:35.952Z,1.00
2023-03-04T05:47:18.461Z,1.00
2023-03-04T05:50:00.663Z,1.00
2023-03-04T05:52:43.209Z,1.00
2023-03-04T05:55:25.914Z,0.90
2023-03-04T05:58:08.551Z,1.00
2023-03-04T06:00:51.085Z,1.00
2023-03-04T06:03:33.794Z,1.00
2023-03-04T06:06:16.189Z,0.90
2023-03-04T06:08:59.162Z,1.00
2023-03-04T06:11:41.797Z,1.00
2023-03-04T06:14:24.337Z,1.00
2023-03-04T06:17:06.656Z,1.00
2023-03-04T06:19:49.197Z,1.00
2023-03-04T06:22:31.368Z,1.00
2023-03-04T06:25:14.015Z,1.00
2023-03-04T06:27:56.192Z,1.00
2023-03-04T06:30:38.719Z,1.00
2023-03-04T06:33:21.202Z,1.00
2023-03-04T06:36:04.277Z,1.00
2023-03-04T06:38:46.451Z,1.10
2023-03-04T06:41:28.934Z,1.10
2023-03-04T06:44:11.662Z,1.10
2023-03-04T06:46:54.205Z,1.10
2023-03-04T06:49:36.506Z,1.10
2023-03-04T06:52:19.001Z,1.10
2023-03-04T06:55:01.257Z,1.20
2023-03-04T06:57:43.626Z,1.20
2023-03-04T07:00:25.961Z,1.20
2023-03-04T07:03:09.450Z,1.20
2023-03-04T07:05:51.739Z,1.20
2023-03-04T07:08:34.336Z,1.30
2023-03-04T07:11:16.823Z,1.30
2023-03-04T07:13:59.435Z,1.30
2023-03-04T07:16:41.782Z,1.30
2023-03-04T07:19:24.557Z,1.30
2023-03-04T07:22:06.802Z,1.30
2023-03-04T07:24:49.901Z,1.30
2023-03-04T07:27:34.198Z,1.30
2023-03-04T07:30:17.078Z,1.40
2023-03-04T07:32:59.444Z,1.40
2023-03-04T07:35:42.295Z,1.40
2023-03-04T07:38:25.341Z,1.40
2023-03-04T07:41:08.029Z,1.40
2023-03-04T07:43:50.725Z,1.50
2023-03-04T07:46:33.889Z,1.50
2023-03-04T07:49:16.411Z,1.50
2023-03-04T07:51:58.930Z,1.50
2023-03-04T07:54:41.430Z,1.50
2023-03-04T07:57:23.999Z,1.50
2023-03-04T08:00:07.631Z,1.50
2023-03-04T08:02:55.183Z,1.50
2023-03-04T08:05:40.580Z,1.60
2023-03-04T08:08:23.232Z,1.60
2023-03-04T08:11:07.832Z,1.60
2023-03-04T08:13:50.985Z,1.60
2023-03-04T08:16:33.942Z,1.60
2023-03-04T08:19:16.658Z,1.60
2023-03-04T08:21:59.535Z,1.60
2023-03-04T08:24:42.038Z,1.70
2023-03-04T08:27:24.470Z,1.60
2023-03-04T08:30:07.871Z,1.60
2023-03-04T08:32:50.280Z,1.70
2023-03-04T08:35:33.255Z,1.70
2023-03-04T08:38:15.506Z,1.70
2023-03-04T08:40:58.560Z,1.70
2023-03-04T08:43:41.626Z,1.80
2023-03-04T08:46:24.258Z,1.90
2023-03-04T08:49:07.160Z,2.00
2023-03-04T08:51:49.799Z,1.90
2023-03-04T08:54:32.348Z,1.90
2023-03-04T08:57:14.938Z,2.00
2023-03-04T08:59:57.233Z,1.90
2023-03-04T09:02:39.792Z,1.90
2023-03-04T09:05:22.139Z,2.00
2023-03-04T09:08:04.888Z,2.00
2023-03-04T09:10:48.133Z,2.00
2023-03-04T09:13:32.078Z,2.10
2023-03-04T09:16:15.207Z,2.10
2023-03-04T09:18:58.071Z,2.10
2023-03-04T09:21:40.384Z,2.20
2023-03-04T09:24:22.950Z,2.20
2023-03-04T09:27:05.481Z,2.20
2023-03-04T09:29:48.223Z,2.20
2023-03-04T09:32:30.650Z,2.30
2023-03-04T09:35:14.370Z,2.30
2023-03-04T09:37:58.116Z,2.40
2023-03-04T09:40:44.883Z,2.40
2023-03-04T09:43:32.275Z,2.40
2023-03-04T09:46:20.370Z,2.40
2023-03-04T09:49:04.779Z,2.40
2023-03-04T09:51:49.058Z,2.40
2023-03-04T09:54:55.101Z,2.40
2023-03-04T09:57:50.905Z,2.40
2023-03-04T10:00:44.820Z,2.40
2023-03-04T10:03:53.899Z,2.40
2023-03-04T10:06:41.458Z,2.80
2023-03-04T10:09:38.293Z,2.70
2023-03-04T10:12:25.897Z,2.60
2023-03-04T10:15:22.145Z,2.60
2023-03-04T10:18:41.021Z,2.60
2023-03-04T10:21:27.262Z,2.50
2023-03-04T10:24:14.913Z,2.70
2023-03-04T10:27:07.222Z,2.70
2023-03-04T10:32:48.700Z,2.90
2023-03-04T10:35:46.601Z,2.90
2023-03-04T10:44:11.611Z,3.00
2023-03-04T10:46:59.054Z,3.10
2023-03-04T10:49:53.621Z,3.10
2023-03-04T10:52:40.664Z,3.20
2023-03-04T10:55:45.774Z,3.20
2023-03-04T10:59:19.723Z,3.20
2023-03-04T11:02:36.730Z,3.30
2023-03-04T11:05:21.931Z,3.30
2023-03-04T11:08:08.419Z,3.40
2023-03-04T11:11:31.816Z,3.40
2023-03-04T11:14:38.875Z,3.50
2023-03-04T11:17:39.100Z,3.50
2023-03-04T11:20:40.272Z,3.60
2023-03-04T11:23:43.762Z,3.50
2023-03-04T11:26:43.707Z,3.50
2023-03-04T11:29:53.037Z,3.50
2023-03-04T11:32:43.716Z,3.50
2023-03-04T11:35:31.262Z,3.50
2023-03-04T11:38:32.928Z,3.50
2023-03-04T11:41:42.363Z,3.50
2023-03-04T11:44:30.477Z,3.60
2023-03-04T11:47:34.424Z,3.50
2023-03-04T11:50:45.761Z,3.60
2023-03-04T11:53:55.126Z,3.60
2023-03-04T11:56:45.647Z,3.70
2023-03-04T11:59:53.806Z,3.70
2023-03-04T12:03:05.737Z,3.80
2023-03-04T12:06:25.108Z,3.80
2023-03-04T12:09:30.046Z,3.90
2023-03-04T12:12:50.630Z,4.10
2023-03-04T12:15:51.651Z,4.10
2023-03-04T12:19:09.922Z,4.10
2023-03-04T12:22:15.597Z,4.10
2023-03-04T12:25:19.709Z,4.20
2023-03-04T12:28:30.005Z,4.30
2023-03-04T12:31:34.223Z,4.50
2023-03-04T12:34:19.652Z,4.50
2023-03-04T12:37:13.143Z,4.60
2023-03-04T12:40:33.577Z,4.70
2023-03-04T12:43:41.924Z,4.70
2023-03-04T12:46:36.390Z,4.80
2023-03-04T12:49:43.449Z,5.00
2023-03-04T12:52:34.639Z,5.00
2023-03-04T12:55:22.458Z,5.00
2023-03-04T12:58:07.344Z,5.10
2023-03-04T13:01:03.431Z,5.10
2023-03-04T13:03:56.290Z,5.00
2023-03-04T13:06:53.707Z,5.10
2023-03-04T13:09:52.994Z,5.00
2023-03-04T13:12:51.969Z,5.00
2023-03-04T13:15:38.893Z,4.90
2023-03-04T13:18:36.248Z,4.80
2023-03-04T13:21:24.475Z,4.80
2023-03-04T13:24:46.289Z,4.70
2023-03-04T13:27:50.644Z,4.80
2023-03-04T13:30:33.580Z,4.90
2023-03-04T13:33:16.170Z,5.10
2023-03-04T13:36:06.326Z,5.00
2023-03-04T13:39:00.690Z,5.20
2023-03-04T13:41:51.450Z,5.10
2023-03-04T13:44:54.231Z,4.90
2023-03-04T13:47:45.737Z,4.80
2023-03-04T13:50:42.496Z,5.00
2023-03-04T13:53:55.073Z,5.10
2023-03-04T13:57:07.901Z,5.20
2023-03-04T13:59:55.153Z,5.00
2023-03-04T14:02:37.777Z,4.90
2023-03-04T14:05:20.485Z,4.90
2023-03-04T14:08:20.230Z,4.80
2023-03-04T14:11:02.783Z,4.80
2023-03-04T14:13:45.628Z,4.80
2023-03-04T14:16:35.434Z,4.80
2023-03-04T14:19:39.472Z,4.70
2023-03-04T14:22:27.650Z,4.80
2023-03-04T14:25:37.525Z,4.80
2023-03-04T14:28:20.970Z,4.70
2023-03-04T14:31:03.726Z,4.70
2023-03-04T14:33:49.014Z,4.60
2023-03-04T14:36:34.704Z,4.50
2023-03-04T14:39:18.905Z,4.30
2023-03-04T14:42:10.648Z,3.40
2023-03-04T14:44:57.629Z,2.60
2023-03-04T14:47:45.354Z,2.20
2023-03-04T14:50:27.740Z,1.90
2023-03-04T14:53:16.752Z,1.80
2023-03-04T14:56:06.605Z,1.70
2023-03-04T14:58:55.166Z,1.70
2023-03-04T15:01:39.181Z,1.70
2023-03-04T15:04:22.464Z,1.70
2023-03-04T15:07:04.834Z,1.70
2023-03-04T15:09:55.652Z,1.80
2023-03-04T15:12:38.495Z,1.80
2023-03-04T15:15:42.500Z,1.80
2023-03-04T15:18:27.612Z,1.90
2023-03-04T15:21:30.485Z,1.90
2023-03-04T15:24:14.585Z,1.90
2023-03-04T15:26:57.478Z,2.00
2023-03-04T15:29:39.907Z,2.00
2023-03-04T15:32:23.659Z,2.00
2023-03-04T15:35:06.348Z,2.00
2023-03-04T15:37:52.643Z,2.00
2023-03-04T15:40:43.069Z,2.00
2023-03-04T15:43:26.240Z,2.00
2023-03-04T15:46:10.393Z,2.00
2023-03-04T15:48:53.996Z,2.00
2023-03-04T15:51:36.457Z,2.00
2023-03-04T15:54:19.162Z,1.90
2023-03-04T15:57:04.394Z,1.80
2023-03-04T15:59:47.344Z,1.80
2023-03-04T16:02:29.684Z,1.70
2023-03-04T16:05:13.538Z,1.70
2023-03-04T16:07:56.546Z,1.70
2023-03-04T16:10:39.362Z,1.70
2023-03-04T16:13:23.927Z,1.70
2023-03-04T16:16:10.015Z,1.70
2023-03-04T16:18:52.423Z,1.70
2023-03-04T16:21:35.243Z,1.60
2023-03-04T16:24:20.143Z,1.60
2023-03-04T16:27:05.956Z,1.70
2023-03-04T16:29:48.915Z,1.60
2023-03-04T16:32:33.838Z,1.60
2023-03-04T16:35:18.877Z,1.70
2023-03-04T16:38:01.753Z,1.60
2023-03-04T16:40:44.204Z,1.70
2023-03-04T16:43:26.927Z,1.60
2023-03-04T16:46:12.903Z,1.70
2023-03-04T16:48:55.663Z,1.60
2023-03-04T16:51:46.514Z,1.60
2023-03-04T16:54:32.110Z,1.60
2023-03-04T16:57:14.517Z,1.60
2023-03-04T16:59:57.353Z,1.50
2023-03-04T17:02:39.791Z,1.40
2023-03-04T17:05:25.850Z,1.30
2023-03-04T17:08:08.026Z,1.30
2023-03-04T17:10:50.601Z,1.30
2023-03-04T17:13:32.999Z,1.20
2023-03-04T17:16:16.749Z,1.20
2023-03-04T17:18:59.363Z,1.20
2023-03-04T17:21:41.989Z,1.10
2023-03-04T17:24:24.580Z,1.10
2023-03-04T17:27:07.141Z,1.00
2023-03-04T17:29:53.134Z,0.90
2023-03-04T17:32:36.591Z,0.90
2023-03-04T17:35:19.307Z,0.90
2023-03-04T17:38:01.865Z,0.80
2023-03-04T17:40:44.582Z,0.80
2023-03-04T17:43:27.038Z,0.80
2023-03-04T17:46:12.799Z,0.70
2023-03-04T17:48:57.484Z,0.70
2023-03-04T17:51:40.699Z,0.70
2023-03-04T17:54:23.246Z,0.60
2023-03-04T17:57:05.984Z,0.60
2023-03-04T17:59:49.555Z,0.60
2023-03-04T18:02:31.947Z,0.50
2023-03-04T18:05:14.901Z,0.50
2023-03-04T18:07:57.213Z,0.50
2023-03-04T18:10:40.324Z,0.50
2023-03-04T18:13:22.661Z,0.50
2023-03-04T18:16:05.669Z,0.50
2023-03-04T18:18:47.993Z,0.50
2023-03-04T18:21:31.443Z,0.40
2023-03-04T18:24:13.878Z,0.40
2023-03-04T18:26:57.478Z,0.50
2023-03-04T18:29:39.851Z,0.50
2023-03-04T18:32:22.891Z,0.40
2023-03-04T18:35:05.579Z,0.40
2023-03-04T18:37:50.344Z,0.30
2023-03-04T18:40:32.721Z,0.20
2023-03-04T18:43:15.328Z,0.20
2023-03-04T18:46:06.692Z,0.20
2023-03-04T18:48:52.849Z,0.20
2023-03-04T18:51:35.434Z,0.10
2023-03-04T18:54:18.823Z,0.10
2023-03-04T18:57:07.176Z,0.10
2023-03-04T19:00:02.361Z,0.10
2023-03-04T19:02:48.625Z,0.10
2023-03-04T19:05:32.932Z,0.10
2023-03-04T19:08:15.600Z,0.10
2023-03-04T19:10:59.092Z,0.10
2023-03-04T19:13:41.409Z,0.20
2023-03-04T19:16:24.970Z,0.20
2023-03-04T19:19:07.740Z,0.20
2023-03-04T19:21:50.529Z,0.20
2023-03-04T19:24:35.674Z,0.10
2023-03-04T19:27:18.376Z,0.10
2023-03-04T19:30:01.422Z,0.10
2023-03-04T19:32:44.048Z,0.00
2023-03-04T19:35:26.315Z,-0.10
2023-03-04T19:38:09.272Z,-0.10
2023-03-04T19:40:51.889Z,-0.10
2023-03-04T19:43:37.066Z,-0.10
2023-03-04T19:46:19.338Z,-0.20
2023-03-04T19:49:03.071Z,-0.20
2023-03-04T19:51:45.511Z,-0.30
2023-03-04T19:54:28.729Z,-0.30
2023-03-04T19:57:11.318Z,-0.40
2023-03-04T19:59:54.082Z,-0.40
2023-03-04T20:02:37.747Z,-0.50
2023-03-04T20:05:20.438Z,-0.60
2023-03-04T20:08:04.526Z,-0.70
2023-03-04T20:10:46.870Z,-0.70
2023-03-04T20:13:29.790Z,-0.70
2023-03-04T20:16:12.705Z,-0.80
2023-03-04T20:18:59.866Z,-0.80
2023-03-04T20:21:42.471Z,-0.90
2023-03-04T20:24:27.053Z,-1.00
2023-03-04T20:27:15.318Z,-1.10
2023-03-04T20:30:00.167Z,-1.20
2023-03-04T20:32:44.065Z,-1.30
2023-03-04T20:35:27.370Z,-1.40
2023-03-04T20:38:10.204Z,-1.50
2023-03-04T20:40:52.884Z,-1.50
2023-03-04T20:43:35.676Z,-1.60
2023-03-04T20:46:43.227Z,-1.60
2023-03-04T20:49:27.933Z,-1.70
2023-03-04T20:52:11.473Z,-1.80
2023-03-04T20:54:54.154Z,-1.90
2023-03-04T20:57:36.803Z,-1.90
2023-03-04T21:00:19.235Z,-2.00
2023-03-04T21:03:01.834Z,-2.00
2023-03-04T21:05:44.144Z,-2.00
2023-03-04T21:08:26.648Z,-2.00
2023-03-04T21:11:13.949Z,-2.10
2023-03-04T21:13:57.747Z,-2.10
2023-03-04T21:16:40.482Z,-2.20
2023-03-04T21:19:25.389Z,-2.20
2023-03-04T21:22:08.462Z,-2.10
2023-03-04T21:24:50.979Z,-2.10
2023-03-04T21:27:38.702Z,-2.10
2023-03-04T21:30:23.164Z,-2.10
2023-03-04T21:33:06.500Z,-2.10
2023-03-04T21:35:50.150Z,-2.10
2023-03-04T21:38:34.493Z,-2.10
2023-03-04T21:41:22.688Z,-2.20
2023-03-04T21:44:05.418Z,-2.30
2023-03-04T21:46:48.325Z,-2.30
2023-03-04T21:49:31.082Z,-2.40
2023-03-04T21:52:13.834Z,-2.40
2023-03-04T21:54:56.153Z,-2.40
2023-03-04T21:57:38.581Z,-2.50
2023-03-04T22:00:21.903Z,-2.50
2023-03-04T22:03:04.482Z,-2.60
2023-03-04T22:05:48.009Z,-2.60
2023-03-04T22:08:30.518Z,-2.70
2023-03-04T22:11:13.452Z,-2.70
2023-03-04T22:14:02.176Z,-2.70
2023-03-04T22:16:54.535Z,-2.80
2023-03-04T22:19:37.750Z,-2.80
2023-03-04T22:22:20.020Z,-2.80
2023-03-04T22:25:02.549Z,-2.80
2023-03-04T22:27:44.737Z,-2.70
2023-03-04T22:30:27.402Z,-2.70
2023-03-04T22:33:09.662Z,-2.80
2023-03-04T22:35:53.016Z,-2.80
2023-03-04T22:38:35.397Z,-2.80
2023-03-04T22:41:20.072Z,-2.90
2023-03-04T22:44:02.749Z,-3.00
2023-03-04T22:46:45.431Z,-3.00
2023-03-04T22:49:27.689Z,-3.10
2023-03-04T22:52:10.953Z,-3.10
2023-03-04T22:54:53.252Z,-3.20
2023-03-04T22:57:35.711Z,-3.10
2023-03-04T23:00:25.105Z,-3.10
2023-03-04T23:03:08.615Z,-3.20
2023-03-04T23:06:06.394Z,-3.10
2023-03-04T23:08:50.394Z,-3.10
2023-03-04T23:11:35.659Z,-3.10
2023-03-04T23:14:18.243Z,-3.20
2023-03-04T23:17:00.578Z,-3.20
2023-03-04T23:19:43.193Z,-3.30
2023-03-04T23:22:26.076Z,-3.30
2023-03-04T23:25:09.020Z,-3.30
2023-03-04T23:27:51.296Z,-3.20
2023-03-04T23:30:35.400Z,-3.20
2023-03-04T23:33:17.675Z,-3.20
2023-03-04T23:36:00.308Z,-3.20
2023-03-04T23:38:48.469Z,-3.20
2023-03-04T23:41:32.889Z,-3.30
2023-03-04T23:44:15.178Z,-3.20
2023-03-04T23:46:58.069Z,-3.20
2023-03-04T23:49:40.318Z,-3.30
2023-03-04T23:52:23.014Z,-3.30
2023-03-04T23:55:06.626Z,-3.30
2023-03-04T23:57:49.066Z,-3.40
